sensor_id;sensor_type;location;lat;lon;timestamp;pressure;altitude;pressure_sealevel;temperature
75273;BMP280;63869;52.344;16.928;2022-10-16T00:01:36;100604.69;;;13.64
75273;BMP280;63869;52.344;16.928;2022-10-16T00:04:02;100593.53;;;13.66
75273;BMP280;63869;52.344;16.928;2022-10-16T00:06:28;100583.09;;;13.68
75273;BMP280;63869;52.344;16.928;2022-10-16T00:08:54;100586.75;;;13.74
75273;BMP280;63869;52.344;16.928;2022-10-16T00:11:29;100571.31;;;13.78
75273;BMP280;63869;52.344;16.928;2022-10-16T00:13:58;100554.84;;;13.76
75273;BMP280;63869;52.344;16.928;2022-10-16T00:16:23;100572.25;;;13.84
75273;BMP280;63869;52.344;16.928;2022-10-16T00:18:49;100562.94;;;13.88
75273;BMP280;63869;52.344;16.928;2022-10-16T00:21:19;100544.44;;;13.78
75273;BMP280;63869;52.344;16.928;2022-10-16T00:23:44;100569.16;;;13.98
75273;BMP280;63869;52.344;16.928;2022-10-16T00:26:15;100560.88;;;13.92
75273;BMP280;63869;52.344;16.928;2022-10-16T00:28:41;100570.88;;;14.05
75273;BMP280;63869;52.344;16.928;2022-10-16T00:31:08;100573.78;;;14.10
75273;BMP280;63869;52.344;16.928;2022-10-16T00:33:35;100580.84;;;14.17
75273;BMP280;63869;52.344;16.928;2022-10-16T00:36:01;100587.34;;;14.19
75273;BMP280;63869;52.344;16.928;2022-10-16T00:38:27;100595.50;;;14.28
75273;BMP280;63869;52.344;16.928;2022-10-16T00:40:52;100586.91;;;14.34
75273;BMP280;63869;52.344;16.928;2022-10-16T00:43:45;100596.03;;;14.36
75273;BMP280;63869;52.344;16.928;2022-10-16T00:46:16;100592.66;;;14.45
75273;BMP280;63869;52.344;16.928;2022-10-16T00:48:49;100585.34;;;14.45
75273;BMP280;63869;52.344;16.928;2022-10-16T00:51:15;100585.13;;;14.52
75273;BMP280;63869;52.344;16.928;2022-10-16T00:53:41;100584.06;;;14.50
75273;BMP280;63869;52.344;16.928;2022-10-16T00:56:06;100581.13;;;14.57
75273;BMP280;63869;52.344;16.928;2022-10-16T00:58:31;100581.63;;;14.64
75273;BMP280;63869;52.344;16.928;2022-10-16T01:00:57;100580.47;;;14.65
75273;BMP280;63869;52.344;16.928;2022-10-16T01:03:31;100579.47;;;14.72
75273;BMP280;63869;52.344;16.928;2022-10-16T01:14:22;100586.22;;;14.77
75273;BMP280;63869;52.344;16.928;2022-10-16T01:16:55;100584.84;;;14.72
75273;BMP280;63869;52.344;16.928;2022-10-16T01:22:38;100596.66;;;14.87
75273;BMP280;63869;52.344;16.928;2022-10-16T01:25:09;100594.25;;;14.89
75273;BMP280;63869;52.344;16.928;2022-10-16T01:27:38;100595.44;;;14.88
75273;BMP280;63869;52.344;16.928;2022-10-16T01:30:10;100570.22;;;14.73
75273;BMP280;63869;52.344;16.928;2022-10-16T01:33:01;100580.63;;;14.84
75273;BMP280;63869;52.344;16.928;2022-10-16T01:35:32;100585.88;;;14.87
75273;BMP280;63869;52.344;16.928;2022-10-16T01:38:06;100589.63;;;14.90
75273;BMP280;63869;52.344;16.928;2022-10-16T01:40:34;100591.91;;;14.91
75273;BMP280;63869;52.344;16.928;2022-10-16T01:43:06;100594.25;;;14.89
75273;BMP280;63869;52.344;16.928;2022-10-16T01:45:34;100598.78;;;14.92
75273;BMP280;63869;52.344;16.928;2022-10-16T01:48:02;100592.28;;;14.81
75273;BMP280;63869;52.344;16.928;2022-10-16T01:50:32;100599.47;;;14.84
75273;BMP280;63869;52.344;16.928;2022-10-16T01:53:00;100589.88;;;14.83
75273;BMP280;63869;52.344;16.928;2022-10-16T01:55:33;100607.84;;;14.98
75273;BMP280;63869;52.344;16.928;2022-10-16T01:58:03;100621.28;;;14.98
75273;BMP280;63869;52.344;16.928;2022-10-16T02:00:29;100600.50;;;14.99
75273;BMP280;63869;52.344;16.928;2022-10-16T02:02:57;100604.66;;;15.00
75273;BMP280;63869;52.344;16.928;2022-10-16T02:05:33;100600.38;;;15.02
75273;BMP280;63869;52.344;16.928;2022-10-16T02:07:59;100599.19;;;15.03
75273;BMP280;63869;52.344;16.928;2022-10-16T02:10:25;100609.06;;;15.06
75273;BMP280;63869;52.344;16.928;2022-10-16T02:13:09;100601.88;;;15.03
75273;BMP280;63869;52.344;16.928;2022-10-16T02:15:35;100606.38;;;15.06
75273;BMP280;63869;52.344;16.928;2022-10-16T02:18:02;100613.69;;;15.06
75273;BMP280;63869;52.344;16.928;2022-10-16T02:20:33;100616.38;;;15.06
75273;BMP280;63869;52.344;16.928;2022-10-16T02:23:00;100607.44;;;15.09
75273;BMP280;63869;52.344;16.928;2022-10-16T02:25:37;100620.47;;;15.11
75273;BMP280;63869;52.344;16.928;2022-10-16T02:28:22;100613.56;;;15.10
75273;BMP280;63869;52.344;16.928;2022-10-16T02:30:52;100607.44;;;15.09
75273;BMP280;63869;52.344;16.928;2022-10-16T02:33:21;100611.53;;;15.14
75273;BMP280;63869;52.344;16.928;2022-10-16T02:35:48;100610.34;;;15.15
75273;BMP280;63869;52.344;16.928;2022-10-16T02:38:16;100609.91;;;15.16
75273;BMP280;63869;52.344;16.928;2022-10-16T02:40:41;100615.41;;;15.13
75273;BMP280;63869;52.344;16.928;2022-10-16T02:43:07;100614.84;;;15.18
75273;BMP280;63869;52.344;16.928;2022-10-16T02:45:34;100613.34;;;15.17
75273;BMP280;63869;52.344;16.928;2022-10-16T02:47:59;100613.66;;;15.19
75273;BMP280;63869;52.344;16.928;2022-10-16T02:50:24;100618.91;;;15.22
75273;BMP280;63869;52.344;16.928;2022-10-16T02:52:50;100615.75;;;15.24
75273;BMP280;63869;52.344;16.928;2022-10-16T02:55:15;100615.00;;;15.23
75273;BMP280;63869;52.344;16.928;2022-10-16T02:57:41;100625.34;;;15.25
75273;BMP280;63869;52.344;16.928;2022-10-16T03:00:08;100616.09;;;15.26
75273;BMP280;63869;52.344;16.928;2022-10-16T03:02:34;100621.63;;;15.22
75273;BMP280;63869;52.344;16.928;2022-10-16T03:04:59;100627.63;;;15.26
75273;BMP280;63869;52.344;16.928;2022-10-16T03:07:24;100617.69;;;15.23
75273;BMP280;63869;52.344;16.928;2022-10-16T03:09:49;100623.72;;;15.27
75273;BMP280;63869;52.344;16.928;2022-10-16T03:12:15;100631.69;;;15.31
75273;BMP280;63869;52.344;16.928;2022-10-16T03:14:40;100624.59;;;15.24
75273;BMP280;63869;52.344;16.928;2022-10-16T03:17:05;100627.63;;;15.26
75273;BMP280;63869;52.344;16.928;2022-10-16T03:19:31;100630.41;;;15.23
75273;BMP280;63869;52.344;16.928;2022-10-16T03:21:56;100611.38;;;15.17
75273;BMP280;63869;52.344;16.928;2022-10-16T03:24:22;100611.84;;;15.16
75273;BMP280;63869;52.344;16.928;2022-10-16T03:26:47;100620.09;;;15.21
75273;BMP280;63869;52.344;16.928;2022-10-16T03:29:12;100629.22;;;15.24
75273;BMP280;63869;52.344;16.928;2022-10-16T03:31:38;100623.22;;;15.20
75273;BMP280;63869;52.344;16.928;2022-10-16T03:34:03;100627.63;;;15.26
75273;BMP280;63869;52.344;16.928;2022-10-16T03:36:28;100624.31;;;15.22
75273;BMP280;63869;52.344;16.928;2022-10-16T03:38:54;100628.63;;;15.20
75273;BMP280;63869;52.344;16.928;2022-10-16T03:41:19;100630.13;;;15.21
75273;BMP280;63869;52.344;16.928;2022-10-16T03:43:45;100635.81;;;15.23
75273;BMP280;63869;52.344;16.928;2022-10-16T03:46:10;100630.00;;;15.24
75273;BMP280;63869;52.344;16.928;2022-10-16T03:48:36;100638.72;;;15.28
75273;BMP280;63869;52.344;16.928;2022-10-16T03:51:01;100641.09;;;15.26
75273;BMP280;63869;52.344;16.928;2022-10-16T03:53:27;100645.16;;;15.31
75273;BMP280;63869;52.344;16.928;2022-10-16T03:55:52;100654.31;;;15.33
75273;BMP280;63869;52.344;16.928;2022-10-16T03:58:17;100652.50;;;15.30
75273;BMP280;63869;52.344;16.928;2022-10-16T04:00:44;100657.31;;;15.35
75273;BMP280;63869;52.344;16.928;2022-10-16T04:03:10;100655.69;;;15.38
75273;BMP280;63869;52.344;16.928;2022-10-16T04:05:36;100656.44;;;15.38
75273;BMP280;63869;52.344;16.928;2022-10-16T04:08:01;100659.34;;;15.44
75273;BMP280;63869;52.344;16.928;2022-10-16T04:10:27;100659.44;;;15.40
75273;BMP280;63869;52.344;16.928;2022-10-16T04:12:52;100656.94;;;15.46
75273;BMP280;63869;52.344;16.928;2022-10-16T04:15:19;100662.97;;;15.50
75273;BMP280;63869;52.344;16.928;2022-10-16T04:17:45;100663.25;;;15.52
75273;BMP280;63869;52.344;16.928;2022-10-16T04:20:10;100662.06;;;15.53
75273;BMP280;63869;52.344;16.928;2022-10-16T04:22:35;100667.78;;;15.55
75273;BMP280;63869;52.344;16.928;2022-10-16T04:25:00;100678.84;;;15.57
75273;BMP280;63869;52.344;16.928;2022-10-16T04:27:26;100679.19;;;15.59
75273;BMP280;63869;52.344;16.928;2022-10-16T04:29:51;100681.13;;;15.59
75273;BMP280;63869;52.344;16.928;2022-10-16T04:32:16;100680.81;;;15.57
75273;BMP280;63869;52.344;16.928;2022-10-16T04:34:42;100676.91;;;15.58
75273;BMP280;63869;52.344;16.928;2022-10-16T04:37:07;100683.06;;;15.58
75273;BMP280;63869;52.344;16.928;2022-10-16T04:39:32;100686.41;;;15.62
75273;BMP280;63869;52.344;16.928;2022-10-16T04:41:58;100683.06;;;15.58
75273;BMP280;63869;52.344;16.928;2022-10-16T04:44:23;100694.47;;;15.62
75273;BMP280;63869;52.344;16.928;2022-10-16T04:46:50;100684.25;;;15.57
75273;BMP280;63869;52.344;16.928;2022-10-16T04:49:15;100698.81;;;15.60
75273;BMP280;63869;52.344;16.928;2022-10-16T04:51:41;100688.81;;;15.60
75273;BMP280;63869;52.344;16.928;2022-10-16T04:54:06;100691.78;;;15.62
75273;BMP280;63869;52.344;16.928;2022-10-16T04:56:31;100685.66;;;15.62
75273;BMP280;63869;52.344;16.928;2022-10-16T04:58:56;100686.50;;;15.59
75273;BMP280;63869;52.344;16.928;2022-10-16T05:01:22;100697.19;;;15.62
75273;BMP280;63869;52.344;16.928;2022-10-16T05:03:47;100694.28;;;15.57
75273;BMP280;63869;52.344;16.928;2022-10-16T05:06:12;100689.22;;;15.59
75273;BMP280;63869;52.344;16.928;2022-10-16T05:08:38;100686.94;;;15.57
75273;BMP280;63869;52.344;16.928;2022-10-16T05:11:03;100685.91;;;15.55
75273;BMP280;63869;52.344;16.928;2022-10-16T05:13:28;100686.34;;;15.53
75273;BMP280;63869;52.344;16.928;2022-10-16T05:15:54;100692.63;;;15.50
75273;BMP280;63869;52.344;16.928;2022-10-16T05:18:19;100705.91;;;15.44
75273;BMP280;63869;52.344;16.928;2022-10-16T05:20:45;100709.88;;;15.40
75273;BMP280;63869;52.344;16.928;2022-10-16T05:23:10;100719.59;;;15.37
75273;BMP280;63869;52.344;16.928;2022-10-16T05:25:37;100718.84;;;15.37
75273;BMP280;63869;52.344;16.928;2022-10-16T05:28:02;100721.97;;;15.35
75273;BMP280;63869;52.344;16.928;2022-10-16T05:30:28;100720.38;;;15.38
75273;BMP280;63869;52.344;16.928;2022-10-16T05:32:53;100711.09;;;15.39
75273;BMP280;63869;52.344;16.928;2022-10-16T05:35:19;100702.88;;;15.42
75273;BMP280;63869;52.344;16.928;2022-10-16T05:37:45;100703.22;;;15.44
75273;BMP280;63869;52.344;16.928;2022-10-16T05:40:11;100706.97;;;15.47
75273;BMP280;63869;52.344;16.928;2022-10-16T05:42:37;100708.03;;;15.50
75273;BMP280;63869;52.344;16.928;2022-10-16T05:45:04;100715.66;;;15.51
75273;BMP280;63869;52.344;16.928;2022-10-16T05:47:30;100709.97;;;15.49
75273;BMP280;63869;52.344;16.928;2022-10-16T05:49:55;100709.69;;;15.56
75273;BMP280;63869;52.344;16.928;2022-10-16T05:52:21;100707.91;;;15.53
75273;BMP280;63869;52.344;16.928;2022-10-16T05:54:46;100717.25;;;15.61
75273;BMP280;63869;52.344;16.928;2022-10-16T05:57:11;100716.03;;;15.62
75273;BMP280;63869;52.344;16.928;2022-10-16T05:59:36;100722.66;;;15.61
75273;BMP280;63869;52.344;16.928;2022-10-16T06:02:02;100715.75;;;15.60
75273;BMP280;63869;52.344;16.928;2022-10-16T06:04:27;100729.53;;;15.62
75273;BMP280;63869;52.344;16.928;2022-10-16T06:06:52;100729.84;;;15.64
75273;BMP280;63869;52.344;16.928;2022-10-16T06:09:18;100735.22;;;15.64
75273;BMP280;63869;52.344;16.928;2022-10-16T06:11:43;100737.94;;;15.64
75273;BMP280;63869;52.344;16.928;2022-10-16T06:14:09;100737.50;;;15.66
75273;BMP280;63869;52.344;16.928;2022-10-16T06:16:35;100746.34;;;15.66
75273;BMP280;63869;52.344;16.928;2022-10-16T06:19:02;100722.25;;;15.50
75273;BMP280;63869;52.344;16.928;2022-10-16T06:21:31;100743.25;;;15.55
75273;BMP280;63869;52.344;16.928;2022-10-16T06:23:57;100733.59;;;15.45
75273;BMP280;63869;52.344;16.928;2022-10-16T06:26:25;100739.31;;;15.47
75273;BMP280;63869;52.344;16.928;2022-10-16T06:28:50;100739.44;;;15.43
75273;BMP280;63869;52.344;16.928;2022-10-16T06:31:16;100751.81;;;15.41
75273;BMP280;63869;52.344;16.928;2022-10-16T06:33:42;100749.06;;;15.32
75273;BMP280;63869;52.344;16.928;2022-10-16T06:36:15;100727.53;;;15.19
75273;BMP280;63869;52.344;16.928;2022-10-16T06:38:42;100753.84;;;15.28
75273;BMP280;63869;52.344;16.928;2022-10-16T06:41:11;100743.50;;;15.14
75273;BMP280;63869;52.344;16.928;2022-10-16T06:43:36;100766.44;;;15.18
75273;BMP280;63869;52.344;16.928;2022-10-16T06:46:03;100774.41;;;15.22
75273;BMP280;63869;52.344;16.928;2022-10-16T06:48:29;100778.59;;;15.23
75273;BMP280;63869;52.344;16.928;2022-10-16T06:51:05;100783.88;;;15.26
75273;BMP280;63869;52.344;16.928;2022-10-16T06:53:33;100781.41;;;15.32
75273;BMP280;63869;52.344;16.928;2022-10-16T06:56:16;100793.38;;;15.53
75273;BMP280;63869;52.344;16.928;2022-10-16T06:58:42;100800.34;;;15.75
75273;BMP280;63869;52.344;16.928;2022-10-16T07:01:08;100808.09;;;15.95
75273;BMP280;63869;52.344;16.928;2022-10-16T07:03:36;100805.34;;;16.08
75273;BMP280;63869;52.344;16.928;2022-10-16T07:06:03;100808.53;;;16.15
75273;BMP280;63869;52.344;16.928;2022-10-16T07:08:33;100823.13;;;16.27
75273;BMP280;63869;52.344;16.928;2022-10-16T07:11:00;100827.94;;;16.32
75273;BMP280;63869;52.344;16.928;2022-10-16T07:13:26;100824.13;;;16.42
75273;BMP280;63869;52.344;16.928;2022-10-16T07:15:51;100824.91;;;16.52
75273;BMP280;63869;52.344;16.928;2022-10-16T07:18:16;100820.75;;;16.60
75273;BMP280;63869;52.344;16.928;2022-10-16T07:20:41;100803.22;;;16.65
75273;BMP280;63869;52.344;16.928;2022-10-16T07:23:07;100825.00;;;16.79
75273;BMP280;63869;52.344;16.928;2022-10-16T07:25:32;100809.56;;;16.80
75273;BMP280;63869;52.344;16.928;2022-10-16T07:27:57;100814.72;;;16.87
75273;BMP280;63869;52.344;16.928;2022-10-16T07:30:23;100806.00;;;16.92
75273;BMP280;63869;52.344;16.928;2022-10-16T07:32:48;100811.41;;;16.92
75273;BMP280;63869;52.344;16.928;2022-10-16T07:35:14;100821.78;;;16.93
75273;BMP280;63869;52.344;16.928;2022-10-16T07:37:39;100823.75;;;17.02
75273;BMP280;63869;52.344;16.928;2022-10-16T07:40:05;100814.00;;;17.14
75273;BMP280;63869;52.344;16.928;2022-10-16T07:42:30;100810.75;;;17.19
75273;BMP280;63869;52.344;16.928;2022-10-16T07:44:56;100812.84;;;17.24
75273;BMP280;63869;52.344;16.928;2022-10-16T07:47:21;100821.97;;;17.26
75273;BMP280;63869;52.344;16.928;2022-10-16T07:49:46;100811.75;;;17.30
75273;BMP280;63869;52.344;16.928;2022-10-16T07:52:11;100809.53;;;17.29
75273;BMP280;63869;52.344;16.928;2022-10-16T07:54:37;100811.75;;;17.30
75273;BMP280;63869;52.344;16.928;2022-10-16T07:57:02;100814.31;;;17.25
75273;BMP280;63869;52.344;16.928;2022-10-16T07:59:27;100825.59;;;17.23
75273;BMP280;63869;52.344;16.928;2022-10-16T08:01:52;100831.00;;;17.23
75273;BMP280;63869;52.344;16.928;2022-10-16T08:04:18;100834.47;;;17.24
75273;BMP280;63869;52.344;16.928;2022-10-16T08:06:43;100835.34;;;17.21
75273;BMP280;63869;52.344;16.928;2022-10-16T08:09:08;100839.72;;;17.27
75273;BMP280;63869;52.344;16.928;2022-10-16T08:11:34;100848.41;;;17.31
75273;BMP280;63869;52.344;16.928;2022-10-16T08:13:59;100847.22;;;17.42
75273;BMP280;63869;52.344;16.928;2022-10-16T08:16:25;100855.09;;;17.49
75273;BMP280;63869;52.344;16.928;2022-10-16T08:18:50;100843.50;;;17.57
75273;BMP280;63869;52.344;16.928;2022-10-16T08:21:18;100837.66;;;17.68
75273;BMP280;63869;52.344;16.928;2022-10-16T08:23:44;100844.81;;;17.89
75273;BMP280;63869;52.344;16.928;2022-10-16T08:26:10;100843.88;;;18.10
75273;BMP280;63869;52.344;16.928;2022-10-16T08:28:36;100848.53;;;18.28
75273;BMP280;63869;52.344;16.928;2022-10-16T08:31:12;100844.53;;;18.47
75273;BMP280;63869;52.344;16.928;2022-10-16T08:33:40;100847.47;;;18.68
75273;BMP280;63869;52.344;16.928;2022-10-16T08:36:06;100847.53;;;18.82
75273;BMP280;63869;52.344;16.928;2022-10-16T08:38:32;100851.69;;;18.92
75273;BMP280;63869;52.344;16.928;2022-10-16T08:41:17;100851.19;;;19.03
75273;BMP280;63869;52.344;16.928;2022-10-16T08:49:00;100846.16;;;19.11
75273;BMP280;63869;52.344;16.928;2022-10-16T08:51:30;100857.25;;;19.22
75273;BMP280;63869;52.344;16.928;2022-10-16T08:53:57;100862.31;;;19.29
75273;BMP280;63869;52.344;16.928;2022-10-16T08:56:24;100868.88;;;19.37
75273;BMP280;63869;52.344;16.928;2022-10-16T08:58:51;100871.44;;;19.41
75273;BMP280;63869;52.344;16.928;2022-10-16T09:01:18;100864.13;;;19.47
75273;BMP280;63869;52.344;16.928;2022-10-16T09:14:44;100879.66;;;19.99
75273;BMP280;63869;52.344;16.928;2022-10-16T09:22:39;100876.41;;;20.45
75273;BMP280;63869;52.344;16.928;2022-10-16T09:25:12;100873.94;;;20.61
75273;BMP280;63869;52.344;16.928;2022-10-16T09:27:38;100868.75;;;20.78
75273;BMP280;63869;52.344;16.928;2022-10-16T09:30:12;100871.00;;;20.80
75273;BMP280;63869;52.344;16.928;2022-10-16T09:32:38;100862.00;;;20.74
75273;BMP280;63869;52.344;16.928;2022-10-16T09:35:11;100867.38;;;20.68
75273;BMP280;63869;52.344;16.928;2022-10-16T09:37:38;100889.34;;;20.65
75273;BMP280;63869;52.344;16.928;2022-10-16T09:40:04;100894.06;;;20.70
75273;BMP280;63869;52.344;16.928;2022-10-16T09:42:34;100897.22;;;20.83
75273;BMP280;63869;52.344;16.928;2022-10-16T09:45:00;100891.53;;;21.01
75273;BMP280;63869;52.344;16.928;2022-10-16T09:47:27;100891.75;;;21.18
75273;BMP280;63869;52.344;16.928;2022-10-16T09:49:58;100884.38;;;21.24
75273;BMP280;63869;52.344;16.928;2022-10-16T09:52:27;100885.69;;;21.28
75273;BMP280;63869;52.344;16.928;2022-10-16T09:55:02;100898.28;;;21.26
75273;BMP280;63869;52.344;16.928;2022-10-16T09:57:28;100891.66;;;21.32
75273;BMP280;63869;52.344;16.928;2022-10-16T09:59:56;100895.81;;;21.28
75273;BMP280;63869;52.344;16.928;2022-10-16T10:02:34;100904.13;;;21.19
75273;BMP280;63869;52.344;16.928;2022-10-16T10:05:00;100901.13;;;21.17
75273;BMP280;63869;52.344;16.928;2022-10-16T10:07:30;100895.53;;;21.06
75273;BMP280;63869;52.344;16.928;2022-10-16T10:09:59;100898.53;;;21.08
75273;BMP280;63869;52.344;16.928;2022-10-16T10:12:28;100897.88;;;21.13
75273;BMP280;63869;52.344;16.928;2022-10-16T10:14:56;100904.31;;;21.15
75273;BMP280;63869;52.344;16.928;2022-10-16T10:17:24;100905.56;;;21.14
75273;BMP280;63869;52.344;16.928;2022-10-16T10:19:52;100901.34;;;21.13
75273;BMP280;63869;52.344;16.928;2022-10-16T10:22:19;100899.50;;;21.04
75273;BMP280;63869;52.344;16.928;2022-10-16T10:30:25;100911.41;;;20.72
75273;BMP280;63869;52.344;16.928;2022-10-16T10:36:04;100907.31;;;20.62
75273;BMP280;63869;52.344;16.928;2022-10-16T10:38:52;100906.84;;;20.64
75273;BMP280;63869;52.344;16.928;2022-10-16T10:46:51;100885.13;;;20.84
75273;BMP280;63869;52.344;16.928;2022-10-16T10:49:27;100893.50;;;21.00
75273;BMP280;63869;52.344;16.928;2022-10-16T11:03:05;100905.50;;;21.75
75273;BMP280;63869;52.344;16.928;2022-10-16T11:05:42;100909.47;;;21.79
75273;BMP280;63869;52.344;16.928;2022-10-16T11:08:19;100902.78;;;21.75
75273;BMP280;63869;52.344;16.928;2022-10-16T11:11:34;100898.09;;;21.81
75273;BMP280;63869;52.344;16.928;2022-10-16T11:14:06;100890.63;;;21.76
75273;BMP280;63869;52.344;16.928;2022-10-16T11:16:48;100887.84;;;21.70
75273;BMP280;63869;52.344;16.928;2022-10-16T11:21:58;100877.47;;;22.00
75273;BMP280;63869;52.344;16.928;2022-10-16T11:24:48;100902.34;;;22.13
75273;BMP280;63869;52.344;16.928;2022-10-16T11:27:19;100881.41;;;21.99
75273;BMP280;63869;52.344;16.928;2022-10-16T11:29:53;100867.78;;;21.99
75273;BMP280;63869;52.344;16.928;2022-10-16T11:32:45;100893.75;;;21.89
75273;BMP280;63869;52.344;16.928;2022-10-16T11:35:24;100874.72;;;21.69
75273;BMP280;63869;52.344;16.928;2022-10-16T11:37:51;100891.47;;;21.87
75273;BMP280;63869;52.344;16.928;2022-10-16T11:40:32;100885.25;;;21.87
75273;BMP280;63869;52.344;16.928;2022-10-16T11:43:08;100892.50;;;21.90
75273;BMP280;63869;52.344;16.928;2022-10-16T11:45:59;100888.81;;;21.93
75273;BMP280;63869;52.344;16.928;2022-10-16T11:51:00;100897.09;;;22.04
75273;BMP280;63869;52.344;16.928;2022-10-16T11:53:48;100883.88;;;21.97
75273;BMP280;63869;52.344;16.928;2022-10-16T11:56:18;100902.44;;;22.24
75273;BMP280;63869;52.344;16.928;2022-10-16T11:59:08;100903.31;;;22.47
75273;BMP280;63869;52.344;16.928;2022-10-16T12:01:43;100919.00;;;22.58
75273;BMP280;63869;52.344;16.928;2022-10-16T12:04:38;100911.69;;;22.75
75273;BMP280;63869;52.344;16.928;2022-10-16T12:07:14;100902.31;;;22.87
75273;BMP280;63869;52.344;16.928;2022-10-16T12:09:41;100904.34;;;23.03
75273;BMP280;63869;52.344;16.928;2022-10-16T12:12:38;100892.50;;;23.17
75273;BMP280;63869;52.344;16.928;2022-10-16T12:15:28;100877.34;;;23.05
75273;BMP280;63869;52.344;16.928;2022-10-16T12:17:55;100909.41;;;23.33
75273;BMP280;63869;52.344;16.928;2022-10-16T12:20:32;100902.72;;;23.34
75273;BMP280;63869;52.344;16.928;2022-10-16T12:23:00;100890.03;;;23.20
75273;BMP280;63869;52.344;16.928;2022-10-16T12:25:37;100899.94;;;23.17
75273;BMP280;63869;52.344;16.928;2022-10-16T12:28:22;100910.31;;;23.07
75273;BMP280;63869;52.344;16.928;2022-10-16T12:30:56;100915.84;;;23.18
75273;BMP280;63869;52.344;16.928;2022-10-16T12:35:50;100931.00;;;22.77
75273;BMP280;63869;52.344;16.928;2022-10-16T12:40:55;100923.94;;;22.54
75273;BMP280;63869;52.344;16.928;2022-10-16T12:45:46;100931.19;;;22.62
75273;BMP280;63869;52.344;16.928;2022-10-16T12:48:20;100916.69;;;22.82
75273;BMP280;63869;52.344;16.928;2022-10-16T12:50:46;100913.38;;;23.32
75273;BMP280;63869;52.344;16.928;2022-10-16T12:53:25;100923.63;;;23.53
75273;BMP280;63869;52.344;16.928;2022-10-16T12:56:19;100901.53;;;23.63
75273;BMP280;63869;52.344;16.928;2022-10-16T12:59:11;100922.19;;;23.97
75273;BMP280;63869;52.344;16.928;2022-10-16T13:02:21;100923.41;;;24.13
75273;BMP280;63869;52.344;16.928;2022-10-16T13:10:28;100957.16;;;23.87
75273;BMP280;63869;52.344;16.928;2022-10-16T13:18:43;100941.19;;;23.36
75273;BMP280;63869;52.344;16.928;2022-10-16T13:27:05;100951.66;;;23.59
75273;BMP280;63869;52.344;16.928;2022-10-16T13:29:33;100947.72;;;23.66
75273;BMP280;63869;52.344;16.928;2022-10-16T13:32:00;100950.22;;;23.75
75273;BMP280;63869;52.344;16.928;2022-10-16T13:34:26;100941.78;;;23.84
75273;BMP280;63869;52.344;16.928;2022-10-16T13:36:52;100946.75;;;24.02
75273;BMP280;63869;52.344;16.928;2022-10-16T13:39:29;100949.97;;;24.18
75273;BMP280;63869;52.344;16.928;2022-10-16T13:42:12;100960.16;;;24.23
75273;BMP280;63869;52.344;16.928;2022-10-16T13:44:53;100955.94;;;23.83
75273;BMP280;63869;52.344;16.928;2022-10-16T13:47:21;100952.88;;;23.42
75273;BMP280;63869;52.344;16.928;2022-10-16T13:50:19;100959.25;;;23.16
75273;BMP280;63869;52.344;16.928;2022-10-16T13:52:44;100970.41;;;22.70
75273;BMP280;63869;52.344;16.928;2022-10-16T13:55:15;100979.34;;;22.40
75273;BMP280;63869;52.344;16.928;2022-10-16T13:57:41;100980.63;;;22.18
75273;BMP280;63869;52.344;16.928;2022-10-16T14:00:25;100993.66;;;21.83
75273;BMP280;63869;52.344;16.928;2022-10-16T14:03:03;100999.84;;;21.58
75273;BMP280;63869;52.344;16.928;2022-10-16T14:05:29;100992.34;;;21.53
75273;BMP280;63869;52.344;16.928;2022-10-16T14:07:56;101005.59;;;21.65
75273;BMP280;63869;52.344;16.928;2022-10-16T14:10:28;101005.09;;;21.87
75273;BMP280;63869;52.344;16.928;2022-10-16T14:12:57;101015.28;;;22.12
75273;BMP280;63869;52.344;16.928;2022-10-16T14:15:23;101003.97;;;22.19
75273;BMP280;63869;52.344;16.928;2022-10-16T14:17:50;100991.19;;;22.05
75273;BMP280;63869;52.344;16.928;2022-10-16T14:20:16;101014.00;;;22.08
75273;BMP280;63869;52.344;16.928;2022-10-16T14:22:42;101011.50;;;22.04
75273;BMP280;63869;52.344;16.928;2022-10-16T14:28:02;101012.38;;;21.96
75273;BMP280;63869;52.344;16.928;2022-10-16T14:30:32;101011.28;;;21.87
75273;BMP280;63869;52.344;16.928;2022-10-16T14:33:03;101009.00;;;21.80
75273;BMP280;63869;52.344;16.928;2022-10-16T14:35:37;101011.19;;;21.76
75273;BMP280;63869;52.344;16.928;2022-10-16T14:38:05;101009.69;;;21.75
75273;BMP280;63869;52.344;16.928;2022-10-16T14:40:33;101032.44;;;21.72
75273;BMP280;63869;52.344;16.928;2022-10-16T14:43:00;101029.25;;;21.74
75273;BMP280;63869;52.344;16.928;2022-10-16T14:45:28;101028.28;;;21.77
75273;BMP280;63869;52.344;16.928;2022-10-16T14:47:59;101021.53;;;21.72
75273;BMP280;63869;52.344;16.928;2022-10-16T14:50:25;101032.75;;;21.80
75273;BMP280;63869;52.344;16.928;2022-10-16T14:52:50;101031.47;;;21.75
75273;BMP280;63869;52.344;16.928;2022-10-16T14:55:17;101036.50;;;21.82
75273;BMP280;63869;52.344;16.928;2022-10-16T14:57:43;101036.66;;;21.73
75273;BMP280;63869;52.344;16.928;2022-10-16T15:00:21;101038.81;;;21.69
75273;BMP280;63869;52.344;16.928;2022-10-16T15:02:48;101042.50;;;21.66
75273;BMP280;63869;52.344;16.928;2022-10-16T15:07:39;101037.38;;;21.54
75273;BMP280;63869;52.344;16.928;2022-10-16T15:10:05;101031.13;;;21.48
75273;BMP280;63869;52.344;16.928;2022-10-16T15:12:30;101042.50;;;21.46
75273;BMP280;63869;52.344;16.928;2022-10-16T15:14:55;101045.47;;;21.48
75273;BMP280;63869;52.344;16.928;2022-10-16T15:17:21;101040.09;;;21.54
75273;BMP280;63869;52.344;16.928;2022-10-16T15:19:46;101039.91;;;21.77
75273;BMP280;63869;52.344;16.928;2022-10-16T15:22:11;101046.34;;;22.00
75273;BMP280;63869;52.344;16.928;2022-10-16T15:24:37;101048.59;;;22.22
75273;BMP280;63869;52.344;16.928;2022-10-16T15:27:02;101063.69;;;22.49
75273;BMP280;63869;52.344;16.928;2022-10-16T15:29:27;101054.88;;;22.65